Time;durP1;ratioP1;P1;durP2;ratioP2;P2;SDS_P1;SDS_P2;PMS_P1;PMS_P2;Temp;Humidity;BMP_temperature;BMP_pressure;BME280_temperature;BME280_humidity;BME280_pressure;Samples;Min_cycle;Max_cycle;Signal;HPM_P1;HPM_P2
2022/10/15 00:00:08;;;;;;;72.38;30.48;;;13.10;99.90;;;;;;5083017;28;20020;-78
2022/10/15 00:02:33;;;;;;;74.07;30.73;;;13.40;99.90;;;;;;5083170;28;20027;-78
2022/10/15 00:04:59;;;;;;;69.65;31.38;;;13.50;99.90;;;;;;5071927;28;20042;-77
2022/10/15 00:07:27;;;;;;;61.20;30.95;;;13.30;99.90;;;;;;5096900;28;20024;-78
2022/10/15 00:09:53;;;;;;;66.47;31.73;;;13.50;99.90;;;;;;5089604;28;20039;-77
2022/10/15 00:12:19;;;;;;;59.30;29.95;;;13.40;99.90;;;;;;5047268;28;20099;-77
2022/10/15 00:14:44;;;;;;;61.42;30.15;;;14.00;99.90;;;;;;5087946;28;20031;-77
2022/10/15 00:17:10;;;;;;;63.78;32.35;;;13.10;99.90;;;;;;5064454;28;20032;-77
2022/10/15 00:19:36;;;;;;;74.82;34.53;;;13.60;99.90;;;;;;5083145;28;20028;-77
2022/10/15 00:22:01;;;;;;;73.47;32.78;;;13.00;99.90;;;;;;5095278;28;20031;-77
2022/10/15 00:24:27;;;;;;;70.43;32.35;;;13.80;99.90;;;;;;5109265;28;20250;-77
2022/10/15 00:26:53;;;;;;;76.05;32.83;;;13.50;99.90;;;;;;5103871;28;20046;-78
2022/10/15 00:29:18;;;;;;;80.20;34.55;;;13.80;99.90;;;;;;5098534;28;20099;-79
2022/10/15 00:31:44;;;;;;;71.95;34.08;;;13.50;99.90;;;;;;5070824;28;20043;-77
2022/10/15 00:34:10;;;;;;;75.88;34.38;;;13.20;99.90;;;;;;5079189;28;20251;-78
2022/10/15 00:36:36;;;;;;;76.07;34.28;;;13.90;99.90;;;;;;5087154;28;20269;-78
2022/10/15 00:39:04;;;;;;;71.63;34.10;;;13.40;99.90;;;;;;5102221;28;20618;-78
2022/10/15 00:41:34;;;;;;;84.63;37.05;;;13.20;99.90;;;;;;5102392;28;20039;-78
2022/10/15 00:44:21;;;;;;;71.75;35.17;;;13.40;99.90;;;;;;5099838;28;20194;-78
2022/10/15 00:46:54;;;;;;;73.95;34.10;;;13.30;99.90;;;;;;5056184;28;20099;-77
2022/10/15 00:49:22;;;;;;;85.47;36.25;;;13.50;99.90;;;;;;5103729;28;20222;-77
2022/10/15 00:52:05;;;;;;;80.13;35.83;;;13.40;99.90;;;;;;5101778;28;20032;-77
2022/10/15 00:54:38;;;;;;;74.95;35.15;;;13.00;99.90;;;;;;5091482;28;20052;-76
2022/10/15 00:57:06;;;;;;;79.80;38.35;;;13.70;99.90;;;;;;5086601;28;20176;-76
2022/10/15 00:59:37;;;;;;;78.25;38.33;;;13.80;99.90;;;;;;5083003;28;20036;-76
2022/10/15 01:02:05;;;;;;;76.57;36.45;;;13.00;99.90;;;;;;5102459;28;20028;-77
2022/10/15 01:04:31;;;;;;;71.45;34.47;;;13.90;99.90;;;;;;5113548;28;20086;-78
2022/10/15 01:06:57;;;;;;;78.53;37.40;;;13.90;99.90;;;;;;5078456;28;20250;-77
2022/10/15 01:09:23;;;;;;;73.95;37.67;;;13.00;99.90;;;;;;5087768;28;20044;-77
2022/10/15 01:11:54;;;;;;;75.00;37.63;;;13.10;99.90;;;;;;5102144;28;20082;-77
2022/10/15 01:14:42;;;;;;;81.20;37.08;;;13.10;99.90;;;;;;5090194;28;20357;-77
2022/10/15 01:17:29;;;;;;;86.90;38.65;;;13.10;99.90;;;;;;5080143;28;20051;-78
2022/10/15 01:20:15;;;;;;;74.97;37.00;;;13.00;99.90;;;;;;5090717;28;20366;-78
2022/10/15 01:23:05;;;;;;;75.68;38.22;;;13.50;99.90;;;;;;5090820;28;20023;-78
2022/10/15 01:26:13;;;;;;;71.90;37.08;;;13.20;99.90;;;;;;5105373;28;20373;-78
2022/10/15 01:29:14;;;;;;;69.60;35.75;;;12.90;99.90;;;;;;5091009;28;20285;-78
2022/10/15 01:31:43;;;;;;;73.40;35.47;;;13.80;99.90;;;;;;5098465;28;20302;-78
2022/10/15 01:34:20;;;;;;;58.28;33.10;;;13.30;99.90;;;;;;5102961;28;20038;-77
2022/10/15 01:36:58;;;;;;;71.80;33.63;;;13.10;99.90;;;;;;5084525;28;20064;-77
2022/10/15 01:39:32;;;;;;;65.68;33.95;;;13.60;99.90;;;;;;5075617;28;20048;-77
2022/10/15 01:42:25;;;;;;;60.72;34.78;;;13.00;99.90;;;;;;5097084;28;20024;-78
2022/10/15 01:44:57;;;;;;;69.97;34.38;;;13.00;99.90;;;;;;5084070;28;20222;-76
2022/10/15 01:47:45;;;;;;;62.30;34.60;;;13.60;99.90;;;;;;5102856;28;20291;-76
2022/10/15 01:50:13;;;;;;;60.92;32.58;;;12.90;99.90;;;;;;5094814;28;20074;-76
2022/10/15 01:52:40;;;;;;;54.33;32.08;;;14.00;99.90;;;;;;5082502;28;20044;-77
2022/10/15 01:55:11;;;;;;;60.65;32.38;;;13.00;99.90;;;;;;5103039;28;20075;-77
2022/10/15 01:57:39;;;;;;;59.25;32.75;;;13.80;99.90;;;;;;5103351;28;20033;-78
2022/10/15 02:00:06;;;;;;;61.38;33.58;;;13.70;99.90;;;;;;5098897;28;20042;-77
2022/10/15 02:02:32;;;;;;;65.63;33.38;;;13.00;99.90;;;;;;5069089;28;20055;-77
2022/10/15 02:04:57;;;;;;;64.05;34.80;;;13.10;99.90;;;;;;5096906;28;20054;-77
2022/10/15 02:07:35;;;;;;;61.72;33.25;;;12.90;99.90;;;;;;5073751;28;20112;-77
2022/10/15 02:10:26;;;;;;;61.70;32.53;;;13.30;99.90;;;;;;5110388;28;20031;-77
2022/10/15 02:13:24;;;;;;;68.53;33.28;;;13.30;99.90;;;;;;5092685;28;20036;-76
2022/10/15 02:16:12;;;;;;;60.08;32.25;;;13.90;99.90;;;;;;5087612;28;20274;-76
2022/10/15 02:19:06;;;;;;;59.20;31.40;;;13.40;99.90;;;;;;5099339;28;20030;-77
2022/10/15 02:21:44;;;;;;;62.22;33.72;;;13.30;99.90;;;;;;5090359;28;20042;-77
2022/10/15 02:24:18;;;;;;;59.60;32.97;;;13.90;99.90;;;;;;5086274;28;20338;-76
2022/10/15 02:26:45;;;;;;;60.03;33.88;;;13.80;99.90;;;;;;5089107;28;20044;-77
2022/10/15 02:29:16;;;;;;;65.18;34.00;;;13.70;99.90;;;;;;5092623;28;20027;-76
2022/10/15 02:31:44;;;;;;;54.95;31.67;;;13.30;99.90;;;;;;5088913;28;20036;-76
2022/10/15 02:34:14;;;;;;;61.80;33.90;;;12.80;99.90;;;;;;5111959;28;20071;-76
2022/10/15 02:36:40;;;;;;;63.20;32.30;;;13.80;99.90;;;;;;5084575;28;20158;-76
2022/10/15 02:39:14;;;;;;;62.40;33.67;;;13.60;99.90;;;;;;5083999;28;20314;-77
2022/10/15 02:41:41;;;;;;;65.95;33.88;;;12.80;99.90;;;;;;5079613;28;20051;-76
2022/10/15 02:44:07;;;;;;;57.53;32.75;;;13.90;99.90;;;;;;5083177;28;20049;-77
2022/10/15 02:46:33;;;;;;;60.95;32.45;;;13.70;99.90;;;;;;5053724;28;20036;-77
2022/10/15 02:48:58;;;;;;;62.17;33.13;;;12.80;99.90;;;;;;5097330;28;20028;-76
2022/10/15 02:51:24;;;;;;;60.05;32.83;;;12.90;99.90;;;;;;5109609;28;20038;-77
2022/10/15 02:53:50;;;;;;;60.60;32.95;;;13.70;99.90;;;;;;5076232;28;20047;-77
2022/10/15 02:56:15;;;;;;;54.53;31.65;;;13.80;99.90;;;;;;5066423;28;20081;-77
2022/10/15 02:58:41;;;;;;;57.80;31.95;;;13.00;99.90;;;;;;5081464;28;20032;-78
2022/10/15 03:01:07;;;;;;;63.60;34.33;;;13.70;99.90;;;;;;5067146;28;20300;-78
2022/10/15 03:03:32;;;;;;;66.65;33.65;;;13.20;99.90;;;;;;5084193;28;20034;-77
2022/10/15 03:05:58;;;;;;;53.85;30.90;;;13.80;99.90;;;;;;5070732;28;20028;-77
2022/10/15 03:08:24;;;;;;;51.05;29.92;;;12.90;99.90;;;;;;5081119;28;20341;-77
2022/10/15 03:10:50;;;;;;;59.08;32.30;;;13.60;99.90;;;;;;5084257;28;20078;-77
2022/10/15 03:13:15;;;;;;;58.85;32.13;;;13.00;99.90;;;;;;5093576;28;20035;-77
2022/10/15 03:15:41;;;;;;;57.17;32.85;;;13.00;99.90;;;;;;5078180;28;20039;-77
2022/10/15 03:18:07;;;;;;;59.30;32.00;;;13.50;99.90;;;;;;5065476;28;20042;-77
2022/10/15 03:20:32;;;;;;;57.65;31.67;;;12.70;99.90;;;;;;5099333;28;20036;-77
2022/10/15 03:22:58;;;;;;;50.08;30.95;;;13.60;99.90;;;;;;5061110;28;20036;-77
2022/10/15 03:25:24;;;;;;;58.08;31.33;;;13.30;99.90;;;;;;5067501;28;20043;-76
2022/10/15 03:27:51;;;;;;;55.47;31.63;;;13.60;99.90;;;;;;5081470;28;20029;-77
2022/10/15 03:30:18;;;;;;;55.60;31.38;;;12.90;99.90;;;;;;5082424;28;20039;-77
2022/10/15 03:32:43;;;;;;;61.80;32.95;;;13.80;99.90;;;;;;5097512;28;20265;-76
2022/10/15 03:35:09;;;;;;;62.83;32.85;;;13.00;99.90;;;;;;5072536;28;20142;-77
2022/10/15 03:37:35;;;;;;;55.97;32.15;;;12.70;99.90;;;;;;5064781;28;20060;-77
2022/10/15 03:40:01;;;;;;;57.85;32.78;;;13.10;99.90;;;;;;5065619;28;20028;-78
2022/10/15 03:42:26;;;;;;;57.90;33.28;;;13.50;99.90;;;;;;5099426;28;20028;-77
2022/10/15 03:44:52;;;;;;;56.33;31.48;;;12.70;99.90;;;;;;5083962;28;20035;-77
2022/10/15 03:47:18;;;;;;;60.47;33.05;;;13.00;99.90;;;;;;5083566;28;20226;-77
2022/10/15 03:49:43;;;;;;;53.50;30.23;;;12.80;99.90;;;;;;5071191;28;20033;-77
2022/10/15 03:52:09;;;;;;;55.22;31.95;;;12.90;99.90;;;;;;5095351;28;20042;-78
2022/10/15 03:54:35;;;;;;;57.25;31.38;;;12.80;99.90;;;;;;5101950;28;20062;-78
2022/10/15 03:57:00;;;;;;;51.95;31.15;;;13.50;99.90;;;;;;5085272;28;20104;-77
2022/10/15 03:59:26;;;;;;;52.00;29.65;;;13.50;99.90;;;;;;5070174;28;20230;-78
2022/10/15 04:01:52;;;;;;;53.65;29.40;;;12.70;99.90;;;;;;5082015;28;20314;-78
2022/10/15 04:04:17;;;;;;;54.38;30.45;;;12.60;99.90;;;;;;5092368;28;20035;-78
2022/10/15 04:06:46;;;;;;;58.15;30.30;;;13.80;99.90;;;;;;5119797;28;20039;-78
2022/10/15 04:09:12;;;;;;;58.50;30.23;;;12.60;99.90;;;;;;5070778;28;20072;-78
2022/10/15 04:11:38;;;;;;;56.40;29.95;;;13.40;99.90;;;;;;5070195;28;20051;-78
2022/10/15 04:14:05;;;;;;;56.70;30.02;;;13.80;99.90;;;;;;5078028;28;20040;-77
2022/10/15 04:16:31;;;;;;;48.28;28.27;;;13.20;99.90;;;;;;5082553;28;20032;-77
2022/10/15 04:18:57;;;;;;;45.40;27.77;;;13.90;99.90;;;;;;5104611;28;20103;-79
2022/10/15 04:21:24;;;;;;;56.78;29.48;;;13.80;99.90;;;;;;5083651;28;20032;-77
2022/10/15 04:23:49;;;;;;;48.00;28.25;;;13.30;99.90;;;;;;5064684;28;20024;-78
2022/10/15 04:26:15;;;;;;;53.33;29.33;;;13.10;99.90;;;;;;5100628;28;20107;-76
2022/10/15 04:28:41;;;;;;;56.30;29.75;;;12.90;99.90;;;;;;5088475;28;20206;-77
2022/10/15 04:31:07;;;;;;;47.20;28.85;;;13.60;99.90;;;;;;5098621;28;20051;-78
2022/10/15 04:33:33;;;;;;;51.72;29.65;;;13.70;99.90;;;;;;5090498;28;20318;-77
2022/10/15 04:36:10;;;;;;;58.47;30.05;;;12.90;99.90;;;;;;5084699;28;20027;-77
2022/10/15 04:38:36;;;;;;;54.20;29.70;;;13.60;99.90;;;;;;5093327;28;20036;-77
2022/10/15 04:41:07;;;;;;;55.85;30.85;;;13.30;99.90;;;;;;5053307;28;20083;-78
2022/10/15 04:43:34;;;;;;;60.22;30.88;;;13.20;99.90;;;;;;5104919;28;20219;-79
2022/10/15 04:46:01;;;;;;;56.85;30.55;;;13.10;99.90;;;;;;5099772;28;20033;-77
2022/10/15 04:48:28;;;;;;;59.42;29.88;;;12.70;99.90;;;;;;5074651;28;20036;-77
2022/10/15 04:50:54;;;;;;;54.05;29.42;;;13.50;99.90;;;;;;5080375;28;20039;-76
2022/10/15 04:53:21;;;;;;;58.88;30.50;;;12.90;99.90;;;;;;5082324;28;20073;-78
2022/10/15 04:55:47;;;;;;;49.50;29.10;;;13.20;99.90;;;;;;5099636;28;20085;-78
2022/10/15 04:58:13;;;;;;;52.22;29.48;;;12.80;99.90;;;;;;5083206;28;21062;-77
2022/10/15 05:00:39;;;;;;;61.70;31.50;;;13.20;99.90;;;;;;5118475;28;20194;-78
2022/10/15 05:03:05;;;;;;;51.20;30.02;;;12.70;99.90;;;;;;5081648;28;20196;-77
2022/10/15 05:05:31;;;;;;;55.42;30.38;;;13.60;99.90;;;;;;5099979;28;20368;-77
2022/10/15 05:08:02;;;;;;;56.80;31.05;;;12.80;99.90;;;;;;5079360;28;20431;-76
2022/10/15 05:10:28;;;;;;;52.13;30.05;;;13.30;99.90;;;;;;5085431;28;20095;-77
2022/10/15 05:12:53;;;;;;;52.03;31.13;;;12.60;99.90;;;;;;5105782;28;20024;-77
2022/10/15 05:15:19;;;;;;;56.90;28.73;;;13.20;99.90;;;;;;5085211;28;20062;-77
2022/10/15 05:17:45;;;;;;;63.53;32.53;;;12.70;99.90;;;;;;5067615;28;20032;-76
2022/10/15 05:20:10;;;;;;;57.03;31.60;;;13.30;99.90;;;;;;5066610;28;20223;-77
2022/10/15 05:22:36;;;;;;;55.70;31.65;;;13.00;99.90;;;;;;5090523;28;20214;-76
2022/10/15 05:25:01;;;;;;;58.05;31.13;;;13.10;99.90;;;;;;5085311;28;20040;-77
2022/10/15 05:27:27;;;;;;;56.00;32.63;;;12.50;99.90;;;;;;5089152;28;20040;-77
2022/10/15 05:29:53;;;;;;;51.53;29.52;;;12.70;99.90;;;;;;5084908;28;20211;-77
2022/10/15 05:32:18;;;;;;;54.25;30.95;;;13.20;99.90;;;;;;5089565;28;20040;-78
2022/10/15 05:34:44;;;;;;;61.08;32.75;;;12.40;99.90;;;;;;5050018;28;20032;-78
2022/10/15 05:37:10;;;;;;;56.92;31.67;;;12.60;99.90;;;;;;5096604;28;20043;-77
2022/10/15 05:39:35;;;;;;;56.45;31.55;;;12.50;99.90;;;;;;5106076;28;20105;-78
2022/10/15 05:42:01;;;;;;;57.78;32.90;;;12.50;99.90;;;;;;5063447;28;20091;-77
2022/10/15 05:44:27;;;;;;;59.28;32.22;;;12.50;99.90;;;;;;5081509;28;20082;-78
2022/10/15 05:46:52;;;;;;;65.03;32.28;;;13.40;99.90;;;;;;5102092;28;20029;-78
2022/10/15 05:49:18;;;;;;;65.63;33.60;;;12.80;99.90;;;;;;5066714;28;20040;-78
2022/10/15 05:51:44;;;;;;;68.70;34.35;;;13.10;99.90;;;;;;5084469;28;20028;-78
2022/10/15 05:54:09;;;;;;;64.38;34.03;;;12.50;99.90;;;;;;5067025;28;20024;-79
2022/10/15 05:56:35;;;;;;;68.28;34.50;;;13.30;99.90;;;;;;5075484;28;20032;-79
2022/10/15 05:59:02;;;;;;;63.70;34.95;;;13.20;99.90;;;;;;5113556;28;20035;-78
2022/10/15 06:01:27;;;;;;;61.13;35.45;;;12.50;99.90;;;;;;5090446;28;20414;-78
2022/10/15 06:03:53;;;;;;;67.47;35.60;;;12.80;99.90;;;;;;5090008;28;20031;-78
2022/10/15 06:06:20;;;;;;;61.45;33.67;;;13.00;99.90;;;;;;5066957;28;20082;-77
2022/10/15 06:08:46;;;;;;;67.10;35.15;;;12.60;99.90;;;;;;5108457;28;20115;-77
2022/10/15 06:11:12;;;;;;;64.78;33.88;;;13.20;99.90;;;;;;5104672;28;20093;-76
2022/10/15 06:13:40;;;;;;;68.20;35.58;;;13.30;99.90;;;;;;5098082;28;20032;-77
2022/10/15 06:16:06;;;;;;;65.18;35.53;;;12.50;99.90;;;;;;5084750;28;20077;-77
2022/10/15 06:18:32;;;;;;;66.25;37.08;;;13.40;99.90;;;;;;5097644;28;20222;-77
2022/10/15 06:20:58;;;;;;;69.65;35.45;;;12.50;99.90;;;;;;5099689;28;20036;-75
2022/10/15 06:23:23;;;;;;;69.28;35.80;;;12.30;99.90;;;;;;5091173;28;20036;-76
2022/10/15 06:25:50;;;;;;;68.70;36.17;;;12.90;99.90;;;;;;5084152;28;20028;-77
2022/10/15 06:28:16;;;;;;;72.50;35.47;;;12.40;99.90;;;;;;5084693;28;20104;-77
2022/10/15 06:30:42;;;;;;;70.22;36.85;;;13.20;99.90;;;;;;5068332;28;20036;-76
2022/10/15 06:33:08;;;;;;;64.40;34.80;;;12.30;99.90;;;;;;5110209;28;20093;-77
2022/10/15 06:35:34;;;;;;;70.47;36.55;;;12.50;99.90;;;;;;5120552;28;20028;-76
2022/10/15 06:38:04;;;;;;;80.07;39.60;;;13.10;99.90;;;;;;5107838;28;20055;-78
2022/10/15 06:40:31;;;;;;;72.45;39.35;;;12.80;99.90;;;;;;5095353;28;20485;-77
2022/10/15 06:43:07;;;;;;;74.32;38.35;;;12.60;99.90;;;;;;5098114;28;20031;-77
2022/10/15 06:45:35;;;;;;;59.85;31.17;;;13.20;99.90;;;;;;5081649;28;20146;-78
2022/10/15 06:48:03;;;;;;;76.82;38.40;;;12.30;99.90;;;;;;5102678;28;20276;-78
2022/10/15 06:50:30;;;;;;;66.75;36.83;;;12.30;99.90;;;;;;5065511;28;20032;-77
2022/10/15 06:52:55;;;;;;;75.85;38.90;;;12.40;99.90;;;;;;5086735;28;20024;-78
2022/10/15 06:55:21;;;;;;;66.07;35.40;;;12.70;99.90;;;;;;5083629;28;20109;-76
2022/10/15 06:57:48;;;;;;;73.22;37.45;;;13.60;99.90;;;;;;5083673;28;20315;-75
2022/10/15 07:00:14;;;;;;;70.90;37.03;;;13.40;99.90;;;;;;5081447;28;20047;-75
2022/10/15 07:02:39;;;;;;;66.15;34.78;;;13.00;99.90;;;;;;5081771;28;20027;-76
2022/10/15 07:05:05;;;;;;;73.30;39.55;;;13.30;99.90;;;;;;5078313;28;20024;-75
2022/10/15 07:07:31;;;;;;;76.63;39.63;;;13.60;99.90;;;;;;5081684;28;21174;-75
2022/10/15 07:10:07;;;;;;;68.38;37.58;;;13.70;99.90;;;;;;5080374;28;20036;-76
2022/10/15 07:12:34;;;;;;;77.07;39.47;;;12.40;99.90;;;;;;5096335;28;20374;-76
2022/10/15 07:14:59;;;;;;;66.43;36.38;;;12.50;99.90;;;;;;5053038;28;20029;-76
2022/10/15 07:17:25;;;;;;;71.95;39.33;;;12.60;99.90;;;;;;5099381;28;20391;-75
2022/10/15 07:19:54;;;;;;;84.50;41.65;;;13.50;99.90;;;;;;5078877;28;20054;-76
2022/10/15 07:22:19;;;;;;;77.38;39.83;;;12.70;99.90;;;;;;5079259;28;20032;-77
2022/10/15 07:24:45;;;;;;;68.50;38.25;;;12.50;99.90;;;;;;5075050;28;20039;-74
2022/10/15 07:27:11;;;;;;;78.10;39.40;;;13.50;99.90;;;;;;5096875;28;20028;-76
2022/10/15 07:29:36;;;;;;;76.90;41.30;;;13.80;99.90;;;;;;5083046;28;20066;-75
2022/10/15 07:32:02;;;;;;;78.40;38.33;;;13.80;99.90;;;;;;5068888;28;20032;-77
2022/10/15 07:34:28;;;;;;;75.72;39.70;;;13.80;99.90;;;;;;5099828;28;20035;-75
2022/10/15 07:36:54;;;;;;;71.63;38.00;;;14.00;99.90;;;;;;5065944;28;20405;-75
2022/10/15 07:39:20;;;;;;;72.50;38.05;;;14.00;99.90;;;;;;5068295;28;20027;-74
2022/10/15 07:41:46;;;;;;;71.97;38.42;;;13.00;99.90;;;;;;5097476;28;20275;-75
2022/10/15 07:44:11;;;;;;;75.15;38.42;;;13.60;99.90;;;;;;5082736;28;20038;-74
2022/10/15 07:46:37;;;;;;;60.83;30.80;;;13.80;99.90;;;;;;5081392;28;20088;-76
2022/10/15 07:49:03;;;;;;;75.07;39.42;;;12.90;99.90;;;;;;5082648;28;20033;-77
2022/10/15 07:51:31;;;;;;;67.05;36.25;;;12.90;99.90;;;;;;5104560;28;20062;-74
2022/10/15 07:53:56;;;;;;;61.08;34.40;;;13.20;99.90;;;;;;5098722;28;20027;-74
2022/10/15 07:56:22;;;;;;;62.05;33.95;;;13.40;99.90;;;;;;5084078;28;20035;-74
2022/10/15 07:58:50;;;;;;;64.95;36.05;;;13.00;99.90;;;;;;5099249;28;20035;-75
2022/10/15 08:01:18;;;;;;;63.67;36.20;;;13.30;99.90;;;;;;5097535;28;20048;-74
2022/10/15 08:03:44;;;;;;;60.50;36.65;;;14.10;99.90;;;;;;5083181;28;20047;-75
2022/10/15 08:06:10;;;;;;;56.78;32.92;;;14.00;99.90;;;;;;5069719;28;20238;-75
2022/10/15 08:08:36;;;;;;;57.60;32.95;;;13.20;99.90;;;;;;5092121;28;20053;-74
2022/10/15 08:11:11;;;;;;;59.88;32.92;;;14.30;99.90;;;;;;5078104;28;20341;-75
2022/10/15 08:13:40;;;;;;;59.85;32.72;;;13.20;99.90;;;;;;5094365;28;20028;-77
2022/10/15 08:16:06;;;;;;;66.13;34.30;;;13.40;99.90;;;;;;5073444;28;20051;-76
2022/10/15 08:18:32;;;;;;;67.65;35.35;;;14.60;99.90;;;;;;5093584;28;20051;-77
2022/10/15 08:20:59;;;;;;;61.08;35.90;;;13.50;99.90;;;;;;5081223;28;20024;-76
2022/10/15 08:23:25;;;;;;;46.17;23.42;;;13.50;99.90;;;;;;5079160;28;20040;-77
2022/10/15 08:25:50;;;;;;;51.28;31.83;;;14.60;99.90;;;;;;5102423;28;20028;-76
2022/10/15 08:28:16;;;;;;;54.58;33.05;;;14.50;99.90;;;;;;5080919;28;20175;-76
2022/10/15 08:30:42;;;;;;;54.05;32.03;;;14.90;99.90;;;;;;5095013;28;20054;-75
2022/10/15 08:33:07;;;;;;;58.10;33.95;;;13.80;99.90;;;;;;5100622;28;20065;-75
2022/10/15 08:35:35;;;;;;;55.17;33.13;;;14.00;99.90;;;;;;5094674;28;20082;-76
2022/10/15 08:38:01;;;;;;;52.22;31.52;;;14.90;99.90;;;;;;5096827;28;20058;-76
2022/10/15 08:40:28;;;;;;;53.85;31.85;;;14.90;99.90;;;;;;5083195;28;20108;-76
2022/10/15 08:42:56;;;;;;;49.95;30.48;;;14.00;99.90;;;;;;5082533;28;20028;-79
2022/10/15 08:45:37;;;;;;;52.55;32.20;;;14.60;99.90;;;;;;5091371;28;20047;-74
2022/10/15 08:48:09;;;;;;;48.00;30.27;;;14.80;99.90;;;;;;5094106;28;20032;-75
2022/10/15 08:50:39;;;;;;;52.05;29.45;;;14.20;99.90;;;;;;5097032;28;20036;-76
2022/10/15 08:53:38;;;;;;;52.30;31.52;;;15.10;99.90;;;;;;5095171;28;20351;-76
2022/10/15 08:56:13;;;;;;;41.22;24.70;;;15.30;99.90;;;;;;5083440;28;20043;-77
2022/10/15 08:58:44;;;;;;;45.63;29.55;;;15.10;99.90;;;;;;5098346;28;20031;-77
2022/10/15 09:01:27;;;;;;;46.90;29.70;;;15.10;99.90;;;;;;5097624;28;20085;-76
2022/10/15 09:04:12;;;;;;;52.50;32.00;;;14.30;99.90;;;;;;5081019;28;20040;-77
2022/10/15 09:06:39;;;;;;;49.63;31.70;;;14.20;99.90;;;;;;5085461;28;20369;-75
2022/10/15 09:09:39;;;;;;;45.60;28.77;;;14.10;99.90;;;;;;5087586;28;20047;-76
2022/10/15 09:12:36;;;;;;;51.80;30.90;;;14.70;99.90;;;;;;5082830;28;20028;-76
2022/10/15 09:15:04;;;;;;;50.22;31.95;;;14.20;99.90;;;;;;5090366;28;20077;-75
2022/10/15 09:17:32;;;;;;;50.83;32.90;;;14.20;99.90;;;;;;5083507;28;20048;-75
2022/10/15 09:20:04;;;;;;;46.65;31.67;;;15.20;99.90;;;;;;5085893;28;20215;-76
2022/10/15 09:22:32;;;;;;;48.70;31.17;;;15.00;99.90;;;;;;5100567;28;20028;-74
2022/10/15 09:24:58;;;;;;;42.92;29.33;;;14.10;99.90;;;;;;5083544;28;20046;-76
2022/10/15 09:27:34;;;;;;;44.80;30.95;;;14.20;99.90;;;;;;5083451;28;20099;-76
2022/10/15 09:30:17;;;;;;;49.67;32.30;;;14.20;99.90;;;;;;5085963;28;20242;-77
2022/10/15 09:33:12;;;;;;;48.63;31.38;;;14.50;99.90;;;;;;5100939;28;20077;-75
2022/10/15 09:35:51;;;;;;;49.03;30.85;;;14.40;99.90;;;;;;5093229;28;20036;-77
2022/10/15 09:38:23;;;;;;;41.40;26.02;;;14.20;99.90;;;;;;5077031;28;20044;-78
2022/10/15 09:41:14;;;;;;;49.75;31.17;;;15.00;99.90;;;;;;5089014;28;20044;-77
2022/10/15 09:43:47;;;;;;;39.95;25.70;;;14.40;99.90;;;;;;5100235;28;20090;-76
2022/10/15 09:46:13;;;;;;;44.53;29.00;;;14.00;99.90;;;;;;5085357;28;20111;-76
2022/10/15 09:48:57;;;;;;;39.72;26.02;;;14.40;99.90;;;;;;5083994;28;20523;-77
2022/10/15 09:51:38;;;;;;;31.98;20.88;;;14.20;99.90;;;;;;5099420;28;20089;-78
2022/10/15 09:54:38;;;;;;;41.05;27.45;;;14.40;99.90;;;;;;5089138;28;20055;-77
2022/10/15 09:57:10;;;;;;;41.33;27.33;;;14.10;99.90;;;;;;5077217;28;20052;-76
2022/10/15 09:59:36;;;;;;;45.97;28.45;;;14.10;99.90;;;;;;5102247;28;20042;-77
2022/10/15 10:02:13;;;;;;;44.08;29.70;;;14.80;99.90;;;;;;5070579;28;20317;-77
2022/10/15 10:04:39;;;;;;;34.42;21.42;;;14.50;99.90;;;;;;5100567;28;20034;-79
2022/10/15 10:07:06;;;;;;;51.35;29.27;;;13.90;99.90;;;;;;5065074;28;20032;-78
2022/10/15 10:09:52;;;;;;;44.13;28.70;;;14.00;99.90;;;;;;5083802;28;20222;-77
2022/10/15 10:12:21;;;;;;;41.25;25.75;;;14.10;99.90;;;;;;5095521;28;20028;-78
2022/10/15 10:14:57;;;;;;;43.13;26.40;;;14.70;99.90;;;;;;5087330;28;20028;-77
2022/10/15 10:17:32;;;;;;;42.65;26.10;;;14.80;99.90;;;;;;5084153;28;20036;-77
2022/10/15 10:20:13;;;;;;;;;;;14.60;99.90;;;;;;5079519;28;20031;-77
2022/10/15 10:22:42;;;;;;;42.83;26.50;;;13.90;99.90;;;;;;5077622;28;20300;-78
2022/10/15 10:25:27;;;;;;;41.80;27.08;;;14.60;99.90;;;;;;5097412;28;20077;-79
2022/10/15 10:27:58;;;;;;;43.90;25.60;;;14.50;99.90;;;;;;5089618;28;20091;-77
2022/10/15 10:30:24;;;;;;;34.67;22.05;;;14.40;99.90;;;;;;5101026;28;20211;-79
2022/10/15 10:32:59;;;;;;;38.58;22.23;;;13.80;99.90;;;;;;5101158;28;20024;-77
2022/10/15 10:35:28;;;;;;;;;;;13.70;99.90;;;;;;5108804;28;20055;-77
2022/10/15 10:37:54;;;;;;;38.78;21.55;;;13.80;99.90;;;;;;5106494;28;19917;-76
2022/10/15 10:40:29;;;;;;;39.95;22.50;;;14.20;99.90;;;;;;5095998;28;20039;-75
2022/10/15 10:43:16;;;;;;;33.08;18.63;;;13.90;99.90;;;;;;5074797;28;20230;-79
2022/10/15 10:46:04;;;;;;;35.40;20.13;;;14.30;99.90;;;;;;5069791;28;20975;-77
2022/10/15 10:48:48;;;;;;;28.65;17.08;;;14.30;99.90;;;;;;5100018;28;20020;-75
2022/10/15 10:51:23;;;;;;;35.25;19.27;;;14.40;99.90;;;;;;5095012;28;20050;-75
2022/10/15 10:53:51;;;;;;;33.72;19.70;;;13.70;99.90;;;;;;5098031;28;20032;-75
2022/10/15 10:56:26;;;;;;;25.50;14.02;;;14.30;99.90;;;;;;5097637;28;20048;-77
2022/10/15 10:59:02;;;;;;;30.65;18.33;;;14.10;99.90;;;;;;5082593;28;20116;-77
2022/10/15 11:01:28;;;;;;;24.27;13.15;;;14.30;99.90;;;;;;5096591;28;20039;-76
2022/10/15 11:03:54;;;;;;;26.55;16.77;;;14.50;99.90;;;;;;5062015;28;20192;-77
2022/10/15 11:06:50;;;;;;;27.45;17.80;;;14.50;99.90;;;;;;5062720;28;20106;-77
2022/10/15 11:09:53;;;;;;;30.73;18.13;;;14.20;99.90;;;;;;5087059;28;20183;-78
2022/10/15 11:12:37;;;;;;;27.23;16.77;;;14.60;99.90;;;;;;5099939;28;20039;-76
2022/10/15 11:15:21;;;;;;;28.77;16.90;;;14.20;99.90;;;;;;5092846;28;20050;-78
2022/10/15 11:18:25;;;;;;;23.13;15.30;;;14.20;99.90;;;;;;5082557;28;20343;-77
2022/10/15 11:21:15;;;;;;;27.25;15.48;;;14.60;99.90;;;;;;5096035;28;20043;-76
2022/10/15 11:23:56;;;;;;;29.38;17.33;;;14.30;99.90;;;;;;5097074;28;20099;-76
2022/10/15 11:26:56;;;;;;;25.50;15.10;;;14.70;99.90;;;;;;5092209;28;20040;-76
2022/10/15 11:29:34;;;;;;;28.02;17.10;;;14.70;99.90;;;;;;5108221;28;20080;-77
2022/10/15 11:32:01;;;;;;;28.55;17.95;;;14.90;99.90;;;;;;5096413;28;20052;-78
2022/10/15 11:34:32;;;;;;;26.75;16.60;;;14.90;99.90;;;;;;5097847;28;20036;-77
2022/10/15 11:37:25;;;;;;;26.35;17.15;;;15.10;99.90;;;;;;5097677;28;20052;-78
2022/10/15 11:40:20;;;;;;;23.50;14.80;;;15.00;99.90;;;;;;5075025;28;20048;-78
2022/10/15 11:42:55;;;;;;;25.15;15.85;;;15.10;99.90;;;;;;5099627;28;20103;-79
2022/10/15 11:45:41;;;;;;;29.00;18.85;;;14.70;99.90;;;;;;5075402;28;20060;-77
2022/10/15 11:48:28;;;;;;;21.67;14.00;;;14.80;99.90;;;;;;5082406;28;20102;-76
2022/10/15 11:51:26;;;;;;;20.15;12.52;;;14.80;99.90;;;;;;5098702;28;20268;-77
2022/10/15 11:54:32;;;;;;;21.10;13.23;;;14.80;99.90;;;;;;5078080;28;20035;-75
2022/10/15 11:57:00;;;;;;;18.45;11.93;;;14.60;99.90;;;;;;5096001;28;20036;-79
2022/10/15 11:59:32;;;;;;;22.08;14.25;;;14.90;99.90;;;;;;5098568;28;20044;-76
2022/10/15 12:02:25;;;;;;;21.85;14.98;;;14.90;99.90;;;;;;5098182;28;20024;-77
2022/10/15 12:04:55;;;;;;;17.08;12.18;;;14.60;99.90;;;;;;5075708;28;20035;-79
2022/10/15 12:07:32;;;;;;;21.15;14.57;;;14.80;99.90;;;;;;5082783;28;20289;-77
2022/10/15 12:10:26;;;;;;;17.58;11.95;;;15.20;99.90;;;;;;5082723;28;20032;-77
2022/10/15 12:13:22;;;;;;;20.27;13.87;;;15.00;99.90;;;;;;5071635;28;20044;-78
2022/10/15 12:15:59;;;;;;;18.00;13.25;;;15.20;99.90;;;;;;5090074;28;20070;-77
2022/10/15 12:18:46;;;;;;;21.65;14.07;;;14.90;99.90;;;;;;5085385;28;20035;-76
2022/10/15 12:21:35;;;;;;;19.33;13.85;;;14.80;99.90;;;;;;5085487;28;20305;-79
2022/10/15 12:24:05;;;;;;;18.63;13.43;;;15.30;99.90;;;;;;5100479;28;20028;-78
2022/10/15 12:26:33;;;;;;;16.23;10.88;;;15.00;99.90;;;;;;5092188;28;20234;-77
2022/10/15 12:29:01;;;;;;;17.70;12.95;;;15.20;99.90;;;;;;5103032;28;20360;-76
2022/10/15 12:32:00;;;;;;;16.90;11.73;;;15.30;99.90;;;;;;5085881;28;20028;-77
2022/10/15 12:34:30;;;;;;;18.55;12.60;;;15.00;99.90;;;;;;5102586;28;20210;-78
2022/10/15 12:37:27;;;;;;;15.65;10.77;;;15.40;99.90;;;;;;5075531;28;20098;-78
2022/10/15 12:39:58;;;;;;;14.98;10.27;;;15.30;99.90;;;;;;5066220;28;20048;-78
2022/10/15 12:42:30;;;;;;;17.73;12.32;;;15.30;99.90;;;;;;5100279;28;20078;-77
2022/10/15 12:44:58;;;;;;;18.10;13.68;;;15.20;99.90;;;;;;5103150;28;20031;-77
2022/10/15 12:48:14;;;;;;;17.15;12.43;;;15.10;99.90;;;;;;5098293;28;20307;-78
2022/10/15 12:50:40;;;;;;;16.45;12.15;;;15.40;99.90;;;;;;5096391;28;20345;-77